KRNO/RNO METAR and TAF weather

Enter ICAO airport designator
Station Type Date Time Source
KRNO METAR 2020/07/04 01:55 UTC NOAA

KRNO 040155Z 29017KT 10SM CLR 28/M02 A3006 RMK AO2 PK WND 29026/0142 SLP129 T02781017 $


Station Type Date Time Source
KRNO Decoded METAR 2020/07/04 01:55 UTC NOAA

RENO/TAHOE INTERNATIONAL AIRPORT, NV, United States (KRNO) 39-29N 119-46W 1342M
Jul 03, 2020 - 09:55 PM EDT / 2020.07.04 0155 UTC
Wind: from the WNW (290 degrees) at 20 MPH (17 KT):0
Visibility: 10 mile(s):0
Sky conditions: clear
Temperature: 82.0 F (27.8 C)
Dew Point: 28.9 F (-1.7 C)
Relative Humidity: 14%
Pressure (altimeter): 30.06 in. Hg (1017 hPa)
ob: KRNO 040155Z 29017KT 10SM CLR 28/M02 A3006 RMK AO2 PK WND 29026/0142 SLP129 T02781017
cycle: 2

Station Type Date Time Source
KRNO TAF 2020/07/03 18:30 UTC NOAA

TAF KRNO 031728Z 0318/0418 VRB03KT P6SM SKC
FM032100 22012G20KT P6SM SKC
FM040000 28016G27KT P6SM SKC
FM040600 VRB03KT P6SM SKC

Example: see airport list